Time;durP1;ratioP1;P1;durP2;ratioP2;P2;SDS_P1;SDS_P2;PMS_P1;PMS_P2;Temp;Humidity;BMP_temperature;BMP_pressure;BME280_temperature;BME280_humidity;BME280_pressure;Samples;Min_cycle;Max_cycle;Signal;HPM_P1;HPM_P2
2023/12/25 00:02:29;;;;;;;1.30;1.10;;;8.60;99.90;;;;;;5075622;28;20039;-80
2023/12/25 00:05:16;;;;;;;1.92;1.23;;;8.60;99.90;;;;;;5105479;28;20055;-76
2023/12/25 00:08:05;;;;;;;1.75;1.13;;;8.60;99.90;;;;;;5096251;28;20099;-79
2023/12/25 00:10:52;;;;;;;1.45;1.10;;;8.50;99.90;;;;;;5059228;28;20049;-81
2023/12/25 00:13:41;;;;;;;2.70;1.40;;;8.50;99.90;;;;;;5078562;28;20036;-79
2023/12/25 00:16:29;;;;;;;1.55;1.30;;;8.50;99.90;;;;;;5086151;28;20048;-78
2023/12/25 00:19:16;;;;;;;1.33;1.23;;;8.50;99.90;;;;;;5086571;28;20047;-81
2023/12/25 00:22:04;;;;;;;1.90;1.45;;;8.40;99.90;;;;;;5086007;28;20066;-79
2023/12/25 00:24:51;;;;;;;3.45;1.45;;;8.40;99.90;;;;;;5091476;28;20477;-77
2023/12/25 00:27:41;;;;;;;2.60;1.67;;;8.50;99.90;;;;;;5096803;28;20036;-80
2023/12/25 00:30:31;;;;;;;1.42;1.33;;;8.40;99.90;;;;;;5089183;28;20032;-79
2023/12/25 00:33:19;;;;;;;3.08;1.83;;;8.40;99.90;;;;;;5076902;28;20059;-78
2023/12/25 00:36:07;;;;;;;5.72;2.55;;;8.40;99.90;;;;;;5098514;28;20097;-78
2023/12/25 00:38:55;;;;;;;3.90;1.98;;;8.50;99.90;;;;;;5101016;28;20056;-81
2023/12/25 00:41:43;;;;;;;2.15;1.40;;;8.50;99.90;;;;;;5090058;28;20624;-81
2023/12/25 00:44:31;;;;;;;2.25;1.40;;;8.50;99.90;;;;;;5088399;28;20066;-81
2023/12/25 00:47:18;;;;;;;1.58;1.30;;;8.50;99.90;;;;;;5089511;28;20115;-81
2023/12/25 00:50:06;;;;;;;3.35;1.55;;;8.50;99.90;;;;;;5089897;28;20043;-78
2023/12/25 00:52:55;;;;;;;2.22;1.80;;;8.50;99.90;;;;;;5082652;28;20131;-80
2023/12/25 00:55:45;;;;;;;2.38;1.40;;;8.50;99.90;;;;;;5090196;28;20044;-80
2023/12/25 00:58:34;;;;;;;2.03;1.25;;;8.50;99.90;;;;;;5094538;28;20118;-82
2023/12/25 01:01:23;;;;;;;1.88;1.60;;;8.50;99.90;;;;;;5083222;28;20048;-79
2023/12/25 01:04:10;;;;;;;1.17;1.08;;;8.40;99.90;;;;;;5076655;28;20059;-79
2023/12/25 01:06:58;;;;;;;1.30;1.20;;;8.40;99.90;;;;;;5090079;28;20044;-81
2023/12/25 01:09:48;;;;;;;1.75;1.10;;;8.40;99.90;;;;;;5090681;28;20392;-80
2023/12/25 01:12:38;;;;;;;6.50;1.80;;;8.50;99.90;;;;;;5091073;28;20052;-73
2023/12/25 01:15:25;;;;;;;1.75;1.35;;;8.50;99.90;;;;;;5099403;28;20051;-80
2023/12/25 01:18:12;;;;;;;3.65;1.30;;;8.40;99.90;;;;;;5089101;28;20163;-81
2023/12/25 01:21:00;;;;;;;2.30;1.50;;;8.50;99.90;;;;;;5066645;28;20051;-82
2023/12/25 01:23:48;;;;;;;2.25;1.40;;;8.50;99.90;;;;;;5071512;28;20036;-79
2023/12/25 01:26:36;;;;;;;1.20;0.98;;;8.60;99.90;;;;;;5076714;28;20036;-80
2023/12/25 01:29:26;;;;;;;1.25;0.98;;;8.60;99.90;;;;;;5075117;28;20124;-79
2023/12/25 01:32:17;;;;;;;1.85;1.30;;;8.60;99.90;;;;;;5086532;28;20076;-79
2023/12/25 01:35:07;;;;;;;3.13;1.33;;;8.70;99.90;;;;;;5076865;28;20044;-79
2023/12/25 01:37:55;;;;;;;2.67;1.45;;;8.70;99.90;;;;;;5072570;28;20119;-80
2023/12/25 01:40:44;;;;;;;2.20;1.05;;;8.70;99.90;;;;;;5089409;28;20570;-78
2023/12/25 01:43:32;;;;;;;1.67;1.27;;;8.70;99.90;;;;;;5077036;28;20040;-79
2023/12/25 01:46:20;;;;;;;1.30;1.20;;;8.70;99.90;;;;;;5092219;28;20040;-77
2023/12/25 01:49:09;;;;;;;0.80;0.80;;;8.70;99.90;;;;;;5083604;28;20048;-77
2023/12/25 01:51:57;;;;;;;0.90;0.90;;;8.70;99.90;;;;;;5074546;28;20040;-79
2023/12/25 01:54:45;;;;;;;0.85;0.85;;;8.70;99.90;;;;;;5084707;28;20047;-82
2023/12/25 01:57:33;;;;;;;1.13;1.00;;;8.70;99.90;;;;;;5093963;28;20134;-76
2023/12/25 02:00:21;;;;;;;3.10;1.17;;;8.70;99.90;;;;;;5099301;28;20043;-78
2023/12/25 02:03:10;;;;;;;1.23;1.10;;;8.60;99.90;;;;;;5090652;28;20066;-81
2023/12/25 02:05:58;;;;;;;0.98;0.98;;;8.60;99.90;;;;;;5081769;28;20177;-80
2023/12/25 02:08:46;;;;;;;1.35;1.00;;;8.50;99.90;;;;;;5069529;28;20097;-78
2023/12/25 02:11:40;;;;;;;1.48;1.08;;;8.50;99.90;;;;;;5081035;28;20160;-78
2023/12/25 02:14:27;;;;;;;2.95;1.17;;;8.40;99.90;;;;;;5085349;28;20059;-79
2023/12/25 02:17:15;;;;;;;0.90;0.90;;;8.50;99.90;;;;;;5080224;28;20447;-77
2023/12/25 02:20:03;;;;;;;1.33;1.17;;;8.50;99.90;;;;;;5082589;28;20127;-80
2023/12/25 02:22:51;;;;;;;2.50;1.10;;;8.50;99.90;;;;;;5082956;28;20048;-78
2023/12/25 02:25:54;;;;;;;1.40;1.05;;;8.50;99.90;;;;;;5089118;28;20036;-78
2023/12/25 02:28:42;;;;;;;1.45;1.05;;;8.50;99.90;;;;;;5090174;28;20488;-80
2023/12/25 02:31:29;;;;;;;3.17;0.98;;;8.40;99.90;;;;;;5084875;28;20790;-80
2023/12/25 02:34:17;;;;;;;0.95;0.90;;;8.40;99.90;;;;;;5085891;28;20389;-80
2023/12/25 02:37:05;;;;;;;1.20;1.10;;;8.40;99.90;;;;;;5089572;28;20040;-78
2023/12/25 02:39:54;;;;;;;1.70;1.00;;;8.40;99.90;;;;;;5089213;28;20028;-77
2023/12/25 02:42:42;;;;;;;1.63;1.10;;;8.40;99.90;;;;;;5065145;28;20059;-79
2023/12/25 02:45:30;;;;;;;2.90;1.00;;;8.40;99.90;;;;;;5104596;28;20032;-78
2023/12/25 02:48:19;;;;;;;1.17;1.05;;;8.40;99.90;;;;;;5102705;28;20042;-78
2023/12/25 02:51:07;;;;;;;2.13;1.20;;;8.40;99.90;;;;;;5082732;28;20494;-78
2023/12/25 02:53:57;;;;;;;2.20;1.25;;;8.50;99.90;;;;;;5083069;28;20595;-78
2023/12/25 02:56:44;;;;;;;4.43;1.13;;;8.50;99.90;;;;;;5085225;28;20040;-78
2023/12/25 02:59:31;;;;;;;1.27;1.00;;;8.40;99.90;;;;;;5083552;28;20044;-77
2023/12/25 03:02:19;;;;;;;1.27;1.10;;;8.40;99.90;;;;;;5080011;28;20056;-79
2023/12/25 03:05:07;;;;;;;1.65;1.20;;;8.40;99.90;;;;;;5091034;28;20040;-78
2023/12/25 03:07:56;;;;;;;2.60;0.93;;;8.40;99.90;;;;;;5086326;28;20400;-79
2023/12/25 03:10:43;;;;;;;2.25;0.90;;;8.40;99.90;;;;;;5080278;28;20506;-77
2023/12/25 03:13:31;;;;;;;1.35;1.15;;;8.30;99.90;;;;;;5071415;28;20046;-79
2023/12/25 03:16:20;;;;;;;3.13;1.13;;;8.40;99.90;;;;;;5066313;28;20043;-78
2023/12/25 03:19:07;;;;;;;0.80;0.80;;;8.40;99.90;;;;;;5080069;28;20043;-81
2023/12/25 03:21:55;;;;;;;3.45;1.65;;;8.40;99.90;;;;;;5086755;28;20055;-77
2023/12/25 03:24:44;;;;;;;1.45;1.10;;;8.50;99.90;;;;;;5094005;28;20119;-80
2023/12/25 03:27:35;;;;;;;2.13;0.93;;;8.50;99.90;;;;;;5092175;28;20431;-77
2023/12/25 03:30:23;;;;;;;2.33;1.30;;;8.40;99.90;;;;;;5091898;28;20044;-77
2023/12/25 03:33:10;;;;;;;1.65;1.20;;;8.50;99.90;;;;;;5078838;28;20045;-79
2023/12/25 03:35:58;;;;;;;2.70;1.30;;;8.50;99.90;;;;;;5092261;28;20048;-78
2023/12/25 03:38:46;;;;;;;1.35;1.23;;;8.50;99.90;;;;;;5086161;28;20040;-80
2023/12/25 03:41:33;;;;;;;1.38;1.10;;;8.50;99.90;;;;;;5086853;28;20048;-79
2023/12/25 03:44:24;;;;;;;1.77;1.13;;;8.50;99.90;;;;;;5084641;28;20043;-79
2023/12/25 03:47:12;;;;;;;2.38;1.27;;;8.50;99.90;;;;;;5076960;28;20404;-81
2023/12/25 03:49:59;;;;;;;3.70;1.40;;;8.50;99.90;;;;;;5067798;28;20044;-80
2023/12/25 03:52:47;;;;;;;1.77;1.30;;;8.60;99.90;;;;;;5084790;28;20098;-79
2023/12/25 03:55:36;;;;;;;2.08;1.30;;;8.50;99.90;;;;;;5087786;28;20067;-80
2023/12/25 03:58:25;;;;;;;1.08;0.90;;;8.50;99.90;;;;;;5069980;28;20184;-78
2023/12/25 04:01:15;;;;;;;1.02;1.00;;;8.60;99.90;;;;;;5078286;28;20059;-81
2023/12/25 04:04:02;;;;;;;1.27;1.10;;;8.60;99.90;;;;;;5088077;28;20040;-79
2023/12/25 04:06:50;;;;;;;1.27;1.00;;;8.60;99.90;;;;;;5088440;28;20051;-81
2023/12/25 04:09:39;;;;;;;2.15;1.15;;;8.50;99.90;;;;;;5087792;28;20055;-76
2023/12/25 04:12:27;;;;;;;1.10;1.00;;;8.50;99.90;;;;;;5093767;28;20054;-76
2023/12/25 04:15:17;;;;;;;3.08;1.10;;;8.50;99.90;;;;;;5094357;28;20044;-78
2023/12/25 04:18:05;;;;;;;1.10;1.00;;;8.50;99.90;;;;;;5100960;28;20047;-79
2023/12/25 04:20:52;;;;;;;1.70;1.00;;;8.40;99.90;;;;;;5092324;28;20047;-79
2023/12/25 04:23:42;;;;;;;2.85;1.13;;;8.40;99.60;;;;;;5099150;28;20051;-78
2023/12/25 04:26:30;;;;;;;1.23;0.90;;;8.50;99.20;;;;;;5103106;28;20041;-80
2023/12/25 04:29:17;;;;;;;1.83;1.05;;;8.50;99.10;;;;;;5109742;28;20035;-76
2023/12/25 04:32:05;;;;;;;0.85;0.85;;;8.40;99.00;;;;;;5098557;28;20056;-79
2023/12/25 04:34:52;;;;;;;2.28;1.10;;;8.40;98.90;;;;;;5091260;28;20047;-79
2023/12/25 04:37:39;;;;;;;1.05;1.05;;;8.40;98.60;;;;;;5074726;28;20043;-76
2023/12/25 04:40:27;;;;;;;1.30;1.20;;;8.40;98.90;;;;;;5080522;28;20051;-81
2023/12/25 04:43:16;;;;;;;1.05;1.00;;;8.40;98.50;;;;;;5069372;28;20040;-80
2023/12/25 04:46:04;;;;;;;0.90;0.90;;;8.40;98.80;;;;;;5088653;28;20044;-79
2023/12/25 04:48:52;;;;;;;1.75;1.10;;;8.40;98.60;;;;;;5092979;28;20051;-80
2023/12/25 04:51:40;;;;;;;2.08;1.08;;;8.40;98.50;;;;;;5083006;28;20044;-79
2023/12/25 04:54:27;;;;;;;1.15;0.90;;;8.40;98.70;;;;;;5090759;28;20055;-80
2023/12/25 04:57:18;;;;;;;1.58;1.13;;;8.30;98.60;;;;;;5094283;28;20071;-80
2023/12/25 05:00:09;;;;;;;3.28;0.98;;;8.30;98.70;;;;;;5090544;28;20048;-79
2023/12/25 05:02:56;;;;;;;1.58;1.45;;;8.30;99.40;;;;;;5097719;28;20508;-80
2023/12/25 05:05:45;;;;;;;1.23;1.13;;;8.20;99.20;;;;;;5081572;28;20040;-81
2023/12/25 05:08:32;;;;;;;1.20;1.10;;;8.20;99.40;;;;;;5089712;28;20063;-81
2023/12/25 05:11:26;;;;;;;1.25;1.15;;;8.20;99.60;;;;;;5082328;28;20552;-77
2023/12/25 05:14:13;;;;;;;1.00;1.00;;;8.10;99.50;;;;;;5090688;28;20040;-74
2023/12/25 05:17:01;;;;;;;2.55;1.25;;;8.10;99.80;;;;;;5103823;28;20043;-75
2023/12/25 05:19:48;;;;;;;2.35;1.00;;;8.10;99.90;;;;;;5101192;28;20044;-79
2023/12/25 05:22:37;;;;;;;1.23;1.13;;;8.10;99.90;;;;;;5087429;28;20388;-80
2023/12/25 05:25:25;;;;;;;1.42;1.20;;;8.10;99.90;;;;;;5068489;28;20052;-78
2023/12/25 05:28:12;;;;;;;1.08;1.02;;;8.10;99.70;;;;;;5100161;28;20040;-78
2023/12/25 05:31:00;;;;;;;1.02;1.00;;;8.10;99.90;;;;;;5100474;28;20464;-79
2023/12/25 05:33:47;;;;;;;1.92;1.00;;;8.10;99.90;;;;;;5081502;28;20666;-80
2023/12/25 05:36:35;;;;;;;2.97;1.27;;;8.10;99.90;;;;;;5090765;28;20050;-78
2023/12/25 05:39:24;;;;;;;1.17;1.08;;;8.00;99.90;;;;;;5094319;28;20870;-79
2023/12/25 05:42:11;;;;;;;1.30;1.20;;;8.00;99.90;;;;;;5087186;28;20036;-78
2023/12/25 05:44:58;;;;;;;1.10;1.00;;;8.00;99.90;;;;;;5085005;28;20047;-77
2023/12/25 05:47:47;;;;;;;1.17;1.08;;;7.90;99.90;;;;;;5062546;28;20036;-81
2023/12/25 05:50:35;;;;;;;1.63;1.17;;;7.90;99.90;;;;;;5094531;28;20054;-80
2023/12/25 05:53:24;;;;;;;1.67;1.25;;;7.90;99.90;;;;;;5068436;28;20126;-79
2023/12/25 05:56:12;;;;;;;1.98;1.25;;;7.80;99.90;;;;;;5090802;28;20065;-78
2023/12/25 05:59:02;;;;;;;1.77;1.20;;;7.70;99.90;;;;;;5092671;28;20044;-81
2023/12/25 06:01:52;;;;;;;2.75;1.20;;;7.70;99.90;;;;;;5073519;28;20051;-79
2023/12/25 06:04:39;;;;;;;1.20;1.10;;;7.70;99.90;;;;;;5085753;28;20457;-80
2023/12/25 06:07:26;;;;;;;1.23;1.13;;;7.70;99.90;;;;;;5067225;28;20400;-78
2023/12/25 06:10:14;;;;;;;2.42;1.20;;;7.70;99.90;;;;;;5084974;28;20047;-77
2023/12/25 06:13:02;;;;;;;1.02;0.93;;;7.60;99.90;;;;;;5072297;28;20055;-77
2023/12/25 06:15:50;;;;;;;3.13;1.40;;;7.60;99.90;;;;;;5085501;28;20055;-78
2023/12/25 06:18:38;;;;;;;1.75;1.23;;;7.60;99.90;;;;;;5073122;28;20784;-79
2023/12/25 06:21:25;;;;;;;1.77;1.27;;;7.60;99.90;;;;;;5089355;28;20498;-79
2023/12/25 06:24:12;;;;;;;2.85;1.00;;;7.70;99.90;;;;;;5093313;28;20053;-77
2023/12/25 06:26:59;;;;;;;1.23;1.10;;;7.60;99.90;;;;;;5095650;28;20051;-78
2023/12/25 06:29:48;;;;;;;1.30;1.20;;;7.60;99.90;;;;;;5085282;28;20044;-79
2023/12/25 06:32:37;;;;;;;1.52;1.20;;;7.60;99.90;;;;;;5084365;28;20043;-81
2023/12/25 06:35:24;;;;;;;2.15;1.30;;;7.50;99.90;;;;;;5073566;28;20092;-80
2023/12/25 06:38:13;;;;;;;1.60;1.30;;;7.50;99.90;;;;;;5082149;28;20046;-78
2023/12/25 06:41:01;;;;;;;2.88;1.20;;;7.60;99.90;;;;;;5072225;28;20206;-82
2023/12/25 06:43:49;;;;;;;2.05;1.35;;;7.50;99.90;;;;;;5081039;28;20032;-78
2023/12/25 06:46:39;;;;;;;1.33;1.20;;;7.60;99.90;;;;;;5081245;28;20040;-82
2023/12/25 06:49:26;;;;;;;1.20;1.10;;;7.60;99.90;;;;;;5088596;28;20062;-80
2023/12/25 06:52:14;;;;;;;1.45;1.35;;;7.60;99.90;;;;;;5100716;28;20081;-78
2023/12/25 06:55:01;;;;;;;1.25;1.15;;;7.50;99.90;;;;;;5090213;28;20054;-78
2023/12/25 06:57:48;;;;;;;1.38;1.20;;;7.50;99.90;;;;;;5096269;28;20059;-76
2023/12/25 07:00:36;;;;;;;1.65;1.52;;;7.50;99.90;;;;;;5087189;28;20047;-76
2023/12/25 07:03:23;;;;;;;1.70;1.08;;;7.40;99.90;;;;;;5077150;28;20069;-76
2023/12/25 07:06:10;;;;;;;1.75;1.23;;;7.40;99.90;;;;;;5076650;28;20424;-77
2023/12/25 07:08:58;;;;;;;2.28;1.10;;;7.50;99.90;;;;;;5082845;28;20062;-77
2023/12/25 07:11:45;;;;;;;2.35;1.20;;;7.50;99.90;;;;;;5078713;28;20039;-77
2023/12/25 07:14:33;;;;;;;1.20;1.10;;;7.40;99.90;;;;;;5084769;28;20043;-77
2023/12/25 07:17:24;;;;;;;1.70;1.17;;;7.30;99.90;;;;;;5083890;28;20050;-77
2023/12/25 07:20:12;;;;;;;2.90;1.40;;;7.30;99.90;;;;;;5094312;28;20043;-78
2023/12/25 07:23:00;;;;;;;5.00;1.30;;;7.30;99.90;;;;;;5090629;28;20047;-80
2023/12/25 07:25:47;;;;;;;1.45;1.35;;;7.30;99.90;;;;;;5079064;28;20051;-77
2023/12/25 07:28:35;;;;;;;3.30;1.40;;;7.30;99.90;;;;;;5086943;28;20033;-79
2023/12/25 07:31:23;;;;;;;1.92;1.20;;;7.30;99.90;;;;;;5087776;28;20066;-76
2023/12/25 07:34:11;;;;;;;1.35;1.25;;;7.40;99.90;;;;;;5089071;28;20760;-77
2023/12/25 07:36:59;;;;;;;1.50;1.40;;;7.40;99.90;;;;;;5091324;28;20098;-77
2023/12/25 07:39:46;;;;;;;2.53;1.25;;;7.50;99.90;;;;;;5100814;28;20059;-81
2023/12/25 07:42:35;;;;;;;1.83;1.20;;;7.50;99.90;;;;;;5078814;28;20044;-77
2023/12/25 07:45:22;;;;;;;1.30;1.20;;;7.50;99.90;;;;;;5083920;28;20576;-77
2023/12/25 07:48:11;;;;;;;1.70;1.40;;;7.50;99.90;;;;;;5089865;28;20051;-77
2023/12/25 07:50:58;;;;;;;3.90;1.58;;;7.50;99.90;;;;;;5076711;28;20121;-78
2023/12/25 07:53:46;;;;;;;2.55;1.17;;;7.50;99.90;;;;;;5098547;28;20032;-77
2023/12/25 07:56:35;;;;;;;1.60;1.15;;;7.60;99.90;;;;;;5100244;28;20117;-77
2023/12/25 07:59:22;;;;;;;2.42;1.50;;;7.60;99.90;;;;;;5092474;28;20500;-78
2023/12/25 08:02:10;;;;;;;1.15;1.05;;;7.60;99.90;;;;;;5086628;28;20058;-78
2023/12/25 08:04:57;;;;;;;2.88;1.20;;;7.70;99.90;;;;;;5073592;28;20083;-77
2023/12/25 08:07:44;;;;;;;1.40;1.30;;;7.70;99.90;;;;;;5075310;28;20069;-79
2023/12/25 08:10:32;;;;;;;3.22;1.35;;;7.70;99.90;;;;;;5067191;28;20055;-78
2023/12/25 08:13:19;;;;;;;1.00;1.00;;;7.70;99.90;;;;;;5090296;28;20401;-79
2023/12/25 08:16:06;;;;;;;2.33;1.70;;;7.70;99.90;;;;;;5084850;28;20106;-78
2023/12/25 08:18:54;;;;;;;1.80;1.60;;;7.70;99.90;;;;;;5070148;28;20070;-76
2023/12/25 08:21:44;;;;;;;1.90;1.35;;;7.70;99.90;;;;;;5077257;28;20043;-77
2023/12/25 08:24:31;;;;;;;1.55;1.30;;;7.70;99.90;;;;;;5085538;28;20047;-77
2023/12/25 08:27:18;;;;;;;1.45;1.35;;;7.80;99.90;;;;;;5080382;28;20169;-79
2023/12/25 08:30:06;;;;;;;1.63;1.33;;;7.90;99.90;;;;;;5078849;28;20040;-77
2023/12/25 08:32:54;;;;;;;1.65;1.55;;;7.80;99.90;;;;;;5090709;28;20048;-79
2023/12/25 08:35:42;;;;;;;1.30;1.20;;;7.90;99.90;;;;;;5090461;28;20804;-77
2023/12/25 08:38:29;;;;;;;1.45;1.30;;;7.80;99.90;;;;;;5085955;28;20600;-78
2023/12/25 08:41:16;;;;;;;1.92;1.52;;;7.90;99.90;;;;;;5080586;28;20055;-77
2023/12/25 08:44:06;;;;;;;1.58;1.20;;;7.90;99.90;;;;;;5102271;28;20406;-74
2023/12/25 08:46:53;;;;;;;3.05;1.58;;;8.00;99.90;;;;;;5088275;28;20066;-78
2023/12/25 08:49:41;;;;;;;2.38;1.20;;;8.00;99.90;;;;;;5093062;28;20047;-74
2023/12/25 08:52:28;;;;;;;1.30;1.20;;;8.10;99.90;;;;;;5108016;28;20032;-75
2023/12/25 08:55:16;;;;;;;1.50;1.40;;;8.20;99.90;;;;;;5103095;28;20042;-77
2023/12/25 08:58:04;;;;;;;1.77;1.23;;;8.40;99.90;;;;;;5105750;28;20053;-74
2023/12/25 09:00:51;;;;;;;2.33;1.40;;;8.50;99.90;;;;;;5098075;28;20044;-75
2023/12/25 09:03:40;;;;;;;2.97;1.77;;;8.60;99.90;;;;;;5102579;28;20414;-73
2023/12/25 09:06:30;;;;;;;1.98;1.27;;;8.60;99.90;;;;;;5112986;28;20117;-75
2023/12/25 09:09:17;;;;;;;2.08;1.40;;;8.60;99.90;;;;;;5115589;28;20029;-77
2023/12/25 09:12:06;;;;;;;2.50;1.77;;;8.60;99.90;;;;;;5098413;28;20039;-76
2023/12/25 09:14:53;;;;;;;3.17;1.10;;;8.80;99.90;;;;;;5091069;28;20028;-77
2023/12/25 09:17:41;;;;;;;1.25;1.15;;;8.90;99.90;;;;;;5068212;28;20048;-78
2023/12/25 09:20:29;;;;;;;2.45;1.10;;;9.00;99.90;;;;;;5085546;28;20032;-79
2023/12/25 09:23:17;;;;;;;1.08;1.05;;;9.00;99.90;;;;;;5078509;28;20044;-78
2023/12/25 09:26:05;;;;;;;1.20;1.15;;;9.10;99.90;;;;;;5088501;28;20096;-78
2023/12/25 09:28:53;;;;;;;2.42;1.20;;;9.30;99.90;;;;;;5066377;28;20048;-78
2023/12/25 09:31:40;;;;;;;2.47;1.50;;;9.40;99.90;;;;;;5074709;28;20024;-75
2023/12/25 09:34:27;;;;;;;1.45;1.33;;;9.60;99.90;;;;;;5109586;28;20031;-76
2023/12/25 09:37:37;;;;;;;4.05;1.75;;;9.80;99.90;;;;;;5105785;28;20539;-79
2023/12/25 09:40:24;;;;;;;1.75;1.30;;;10.10;99.90;;;;;;5102340;28;20428;-76
2023/12/25 09:43:12;;;;;;;1.10;1.00;;;10.00;99.90;;;;;;5103343;28;20048;-74
2023/12/25 09:46:00;;;;;;;2.15;1.10;;;9.70;99.90;;;;;;5097490;28;20119;-76
2023/12/25 09:48:48;;;;;;;1.40;1.30;;;9.60;99.90;;;;;;5098342;28;20036;-77
2023/12/25 09:51:36;;;;;;;2.20;1.10;;;9.40;99.90;;;;;;5097468;28;20032;-79
2023/12/25 09:54:24;;;;;;;2.15;1.02;;;9.20;99.90;;;;;;5061424;28;20048;-78
2023/12/25 09:57:15;;;;;;;2.92;1.00;;;9.30;99.90;;;;;;5090451;28;20044;-75
2023/12/25 10:00:04;;;;;;;1.45;1.00;;;10.00;99.90;;;;;;5093926;28;20043;-77
2023/12/25 10:02:53;;;;;;;1.80;1.33;;;10.40;99.90;;;;;;5087519;28;20055;-80
2023/12/25 10:05:41;;;;;;;3.53;1.10;;;10.70;99.90;;;;;;5086641;28;20032;-79
2023/12/25 10:08:30;;;;;;;2.10;1.20;;;10.70;99.90;;;;;;5085368;28;20043;-79
2023/12/25 10:11:17;;;;;;;1.70;1.40;;;11.00;99.90;;;;;;5089092;28;20066;-79
2023/12/25 10:14:05;;;;;;;2.38;1.50;;;11.10;99.90;;;;;;5089310;28;20221;-78
2023/12/25 10:16:56;;;;;;;2.22;1.38;;;10.90;99.90;;;;;;5087462;28;20055;-79
2023/12/25 10:19:54;;;;;;;2.47;1.17;;;10.90;99.90;;;;;;5077440;28;20043;-79
2023/12/25 10:22:42;;;;;;;1.88;1.23;;;10.70;99.90;;;;;;5081466;28;20055;-77
2023/12/25 10:25:30;;;;;;;2.03;1.40;;;10.60;99.90;;;;;;5071814;28;20117;-77
2023/12/25 10:28:18;;;;;;;2.75;1.23;;;10.70;99.90;;;;;;5071937;28;20059;-77
2023/12/25 10:31:08;;;;;;;0.88;0.88;;;10.90;99.90;;;;;;5096460;28;20043;-77
2023/12/25 10:33:59;;;;;;;1.98;1.20;;;11.10;99.90;;;;;;5099796;28;20419;-79
2023/12/25 10:36:53;;;;;;;1.85;1.05;;;11.60;99.90;;;;;;5091992;28;20154;-78
2023/12/25 10:39:52;;;;;;;1.65;1.00;;;11.70;99.90;;;;;;5094349;28;20048;-78
2023/12/25 10:42:45;;;;;;;1.40;1.00;;;11.80;99.90;;;;;;5098349;28;20059;-79
2023/12/25 10:45:38;;;;;;;1.85;1.00;;;12.20;99.90;;;;;;5095609;28;20032;-80
2023/12/25 10:48:30;;;;;;;1.40;1.10;;;12.40;99.90;;;;;;5067352;28;20032;-80
2023/12/25 10:51:32;;;;;;;1.20;1.00;;;12.40;99.90;;;;;;5082755;28;20055;-80
2023/12/25 10:54:32;;;;;;;1.08;0.98;;;12.50;99.90;;;;;;5088295;28;20040;-80
2023/12/25 10:57:21;;;;;;;2.10;1.00;;;12.70;99.90;;;;;;5094338;28;20066;-81
2023/12/25 11:00:10;;;;;;;1.42;1.15;;;13.30;99.30;;;;;;5092549;28;20124;-80
2023/12/25 11:03:02;;;;;;;1.90;1.15;;;13.30;99.20;;;;;;5089320;28;20052;-80
2023/12/25 11:05:50;;;;;;;0.95;0.80;;;13.00;99.10;;;;;;5078068;28;20055;-79
2023/12/25 11:08:40;;;;;;;2.63;0.80;;;13.00;99.80;;;;;;5091068;28;20040;-80
2023/12/25 11:11:27;;;;;;;1.00;0.80;;;13.50;98.70;;;;;;5077392;28;20185;-80
2023/12/25 11:14:19;;;;;;;0.95;0.65;;;13.30;99.00;;;;;;5090438;28;20048;-80
2023/12/25 11:17:07;;;;;;;3.53;0.80;;;13.20;99.20;;;;;;5089562;28;20040;-80
2023/12/25 11:19:55;;;;;;;1.73;0.90;;;13.60;98.60;;;;;;5073694;28;20044;-81
2023/12/25 11:22:47;;;;;;;1.60;0.80;;;13.40;98.70;;;;;;5091160;28;20036;-81
2023/12/25 11:25:37;;;;;;;1.05;0.80;;;12.60;99.90;;;;;;5094260;28;20038;-80
2023/12/25 11:28:26;;;;;;;1.27;0.80;;;12.50;99.90;;;;;;5067734;28;20043;-79
2023/12/25 11:31:21;;;;;;;1.00;0.85;;;12.40;99.90;;;;;;5085182;28;20448;-79
2023/12/25 11:34:33;;;;;;;2.72;1.23;;;12.40;99.90;;;;;;5091027;28;20039;-76
2023/12/25 11:37:23;;;;;;;1.52;0.90;;;12.20;99.90;;;;;;5085627;28;20519;-78
2023/12/25 11:40:11;;;;;;;2.03;1.00;;;12.00;99.90;;;;;;5064974;28;20149;-80
2023/12/25 11:43:01;;;;;;;2.45;1.02;;;11.90;99.90;;;;;;5084477;28;20156;-81
2023/12/25 11:45:54;;;;;;;;;;;11.90;99.90;;;;;;5067131;28;20044;-80
2023/12/25 11:48:47;;;;;;;0.70;0.70;;;11.70;99.90;;;;;;5077171;28;19934;-81
2023/12/25 11:51:45;;;;;;;1.35;1.02;;;11.50;99.90;;;;;;5087239;28;20056;-78
2023/12/25 11:54:38;;;;;;;0.70;0.70;;;11.50;99.90;;;;;;5096718;28;20040;-79
2023/12/25 11:57:29;;;;;;;1.83;1.10;;;11.30;99.90;;;;;;5089980;28;20057;-81
2023/12/25 12:00:23;;;;;;;1.20;0.82;;;11.20;99.90;;;;;;5096395;28;20032;-81
2023/12/25 12:03:14;;;;;;;2.55;0.73;;;11.20;99.90;;;;;;5081702;28;20407;-82
2023/12/25 12:06:09;;;;;;;1.85;0.95;;;11.30;99.90;;;;;;5081408;28;20482;-80
2023/12/25 12:08:59;;;;;;;1.30;0.90;;;11.00;99.90;;;;;;5087836;28;20098;-81
2023/12/25 12:11:46;;;;;;;0.75;0.73;;;10.80;99.90;;;;;;5089457;28;20048;-81
2023/12/25 12:14:37;;;;;;;1.70;1.10;;;10.60;99.90;;;;;;5071881;28;20111;-81
2023/12/25 12:17:25;;;;;;;1.23;0.95;;;10.60;99.90;;;;;;5069278;28;20052;-79
2023/12/25 12:20:15;;;;;;;0.98;0.75;;;10.50;99.90;;;;;;5098749;28;20044;-81
2023/12/25 12:23:04;;;;;;;2.65;1.15;;;10.40;99.90;;;;;;5065945;28;20044;-80
2023/12/25 12:25:52;;;;;;;1.83;0.93;;;10.40;99.90;;;;;;5046891;28;20203;-79
2023/12/25 12:28:39;;;;;;;1.55;0.90;;;10.30;99.90;;;;;;5057867;28;20048;-82
2023/12/25 12:31:26;;;;;;;2.15;1.13;;;10.30;99.90;;;;;;5054531;28;20040;-80
2023/12/25 12:34:14;;;;;;;1.23;0.93;;;10.20;99.90;;;;;;5055548;28;20048;-81
2023/12/25 12:37:03;;;;;;;1.63;1.00;;;10.20;99.90;;;;;;5072510;28;20044;-80
2023/12/25 12:39:58;;;;;;;3.03;1.52;;;10.30;99.90;;;;;;5073949;28;20090;-81
2023/12/25 12:42:46;;;;;;;1.70;1.17;;;10.40;99.90;;;;;;5069648;28;20036;-80
2023/12/25 12:45:33;;;;;;;0.90;0.90;;;10.40;99.90;;;;;;5056430;28;20044;-79
2023/12/25 12:48:25;;;;;;;1.10;1.10;;;10.40;99.90;;;;;;5079483;28;20545;-81
2023/12/25 12:51:12;;;;;;;1.17;0.70;;;10.50;99.90;;;;;;5081229;28;20044;-81
2023/12/25 12:54:02;;;;;;;0.98;0.80;;;10.70;99.90;;;;;;5065817;28;20066;-81
2023/12/25 12:56:50;;;;;;;1.70;1.10;;;10.90;99.90;;;;;;5070540;28;20108;-80
2023/12/25 12:59:39;;;;;;;1.13;0.82;;;10.70;99.90;;;;;;5048446;28;20519;-78
2023/12/25 13:02:28;;;;;;;0.98;0.90;;;10.50;99.90;;;;;;5071356;28;20145;-80
2023/12/25 13:05:17;;;;;;;1.35;1.10;;;10.30;99.90;;;;;;5068596;28;20056;-81
2023/12/25 13:08:05;;;;;;;1.25;0.90;;;10.20;99.90;;;;;;5056352;28;20104;-81
2023/12/25 13:10:52;;;;;;;2.10;1.15;;;10.10;99.90;;;;;;5064831;28;20091;-81
2023/12/25 13:13:39;;;;;;;2.15;1.20;;;9.90;99.90;;;;;;5068557;28;20064;-81
2023/12/25 13:16:27;;;;;;;3.00;1.95;;;9.90;99.90;;;;;;5062907;28;20052;-80
2023/12/25 13:19:15;;;;;;;1.13;0.95;;;10.00;99.90;;;;;;5065686;28;20097;-81
2023/12/25 13:22:05;;;;;;;1.67;0.95;;;10.00;99.90;;;;;;5050810;28;20049;-78
2023/12/25 13:24:53;;;;;;;1.27;0.80;;;9.90;99.90;;;;;;5070986;28;20058;-80
2023/12/25 13:27:42;;;;;;;1.67;1.52;;;9.80;99.90;;;;;;5079092;28;20044;-82
2023/12/25 13:30:30;;;;;;;1.90;1.30;;;9.90;99.90;;;;;;5067654;28;20485;-81
2023/12/25 13:33:20;;;;;;;1.27;1.10;;;9.90;99.90;;;;;;5076112;28;20040;-79
2023/12/25 13:36:10;;;;;;;1.40;1.30;;;10.00;99.90;;;;;;5073900;28;20166;-81
2023/12/25 13:38:57;;;;;;;1.25;1.15;;;10.00;99.90;;;;;;5076069;28;20104;-81
2023/12/25 13:41:46;;;;;;;1.42;1.10;;;10.00;99.90;;;;;;5068205;28;20047;-81
2023/12/25 13:44:34;;;;;;;1.50;1.13;;;10.00;99.90;;;;;;5069642;28;20052;-81
2023/12/25 13:47:22;;;;;;;1.38;1.17;;;10.00;99.90;;;;;;5076929;28;20044;-80
2023/12/25 13:50:11;;;;;;;1.38;1.20;;;9.80;99.90;;;;;;5079370;28;20055;-82
2023/12/25 13:52:58;;;;;;;1.20;1.10;;;9.80;99.90;;;;;;5074309;28;20059;-78
2023/12/25 13:55:46;;;;;;;0.90;0.90;;;9.70;99.90;;;;;;5074571;28;20119;-81
2023/12/25 13:58:33;;;;;;;1.27;1.00;;;9.70;99.90;;;;;;5074932;28;20041;-83
2023/12/25 14:01:21;;;;;;;2.97;1.20;;;9.70;99.90;;;;;;5075762;28;20049;-79
2023/12/25 14:04:08;;;;;;;1.33;1.10;;;9.70;99.90;;;;;;5065596;28;20050;-78
2023/12/25 14:06:56;;;;;;;1.58;1.10;;;9.60;99.90;;;;;;5073029;28;20046;-80
2023/12/25 14:09:45;;;;;;;1.38;1.08;;;9.60;99.90;;;;;;5060554;28;20036;-82
2023/12/25 14:12:32;;;;;;;2.42;1.40;;;9.60;99.90;;;;;;5076719;28;20045;-80
2023/12/25 14:15:23;;;;;;;2.22;1.27;;;9.50;99.90;;;;;;5081403;28;20044;-81
2023/12/25 14:18:11;;;;;;;1.45;1.10;;;9.50;99.90;;;;;;5064295;28;20127;-79
2023/12/25 14:20:59;;;;;;;1.40;1.30;;;9.50;99.90;;;;;;5062456;28;20049;-80
2023/12/25 14:23:49;;;;;;;2.00;1.38;;;9.50;99.90;;;;;;5083155;28;20036;-77
2023/12/25 14:26:39;;;;;;;6.47;1.70;;;9.40;99.90;;;;;;5087961;28;20092;-77
2023/12/25 14:29:27;;;;;;;2.05;1.00;;;9.30;99.90;;;;;;5053163;28;20043;-79
2023/12/25 14:32:14;;;;;;;1.00;0.90;;;9.30;99.90;;;;;;5056277;28;20105;-78
2023/12/25 14:35:05;;;;;;;1.15;0.90;;;9.20;99.90;;;;;;5053236;28;20049;-82
2023/12/25 14:37:52;;;;;;;1.60;1.10;;;9.20;99.90;;;;;;5066050;28;20048;-81
2023/12/25 14:40:40;;;;;;;2.42;1.05;;;9.20;99.90;;;;;;5062600;28;20044;-78
2023/12/25 14:43:32;;;;;;;1.38;1.23;;;9.20;99.90;;;;;;5060734;28;20041;-81
2023/12/25 14:46:20;;;;;;;1.58;1.30;;;9.10;99.90;;;;;;5061977;28;20476;-81
2023/12/25 14:49:08;;;;;;;0.95;0.95;;;9.10;99.90;;;;;;5055645;28;20040;-77